Time;durP1;ratioP1;P1;durP2;ratioP2;P2;SDS_P1;SDS_P2;PMS_P1;PMS_P2;Temp;Humidity;BMP_temperature;BMP_pressure;BME280_temperature;BME280_humidity;BME280_pressure;Samples;Min_cycle;Max_cycle;Signal;HPM_P1;HPM_P2
2023/12/05 00:02:21;;;;;;;1.60;1.50;;;;;;;8.08;64.33;99792.91;5029194;28;20130;-56
2023/12/05 00:04:47;;;;;;;1.55;1.45;;;;;;;8.08;64.23;99787.63;5029826;28;20030;-56
2023/12/05 00:07:12;;;;;;;1.95;1.50;;;;;;;8.08;64.35;99792.91;5033898;28;20103;-55
2023/12/05 00:09:38;;;;;;;1.50;1.40;;;;;;;8.08;64.23;99782.31;5045018;28;20030;-56
2023/12/05 00:12:04;;;;;;;1.75;1.65;;;;;;;8.08;64.33;99786.78;5030041;28;20496;-56
2023/12/05 00:14:31;;;;;;;1.63;1.50;;;;;;;8.08;64.28;99781.47;5032968;28;20072;-55
2023/12/05 00:16:56;;;;;;;2.03;1.67;;;;;;;8.09;64.35;99781.38;5033140;28;20038;-56
2023/12/05 00:19:21;;;;;;;1.88;1.65;;;;;;;8.08;64.43;99782.31;5032083;28;20394;-56
2023/12/05 00:21:47;;;;;;;1.75;1.50;;;;;;;8.09;64.44;99777.84;5029724;28;20048;-56
2023/12/05 00:24:12;;;;;;;2.00;1.52;;;;;;;8.09;64.32;99778.72;5028418;28;20107;-56
2023/12/05 00:26:37;;;;;;;1.58;1.48;;;;;;;8.08;64.39;99774.38;5031301;28;20401;-56
2023/12/05 00:29:03;;;;;;;1.73;1.63;;;;;;;8.09;64.30;99769.91;5030476;28;20395;-56
2023/12/05 00:31:28;;;;;;;1.60;1.50;;;;;;;8.09;64.33;99775.19;5030116;28;20124;-55
2023/12/05 00:33:54;;;;;;;1.73;1.45;;;;;;;8.07;64.28;99770.00;5029013;28;20029;-55
2023/12/05 00:36:19;;;;;;;1.42;1.33;;;;;;;8.07;64.44;99767.34;5029933;28;20088;-56
2023/12/05 00:38:44;;;;;;;1.70;1.60;;;;;;;8.08;64.35;99761.09;5029517;28;20440;-56
2023/12/05 00:41:10;;;;;;;1.70;1.60;;;;;;;8.07;64.39;99764.69;5028617;28;20112;-56
2023/12/05 00:43:36;;;;;;;1.90;1.65;;;;;;;8.08;64.33;99770.88;5028981;28;20036;-56
2023/12/05 00:46:02;;;;;;;1.70;1.58;;;;;;;8.07;64.29;99761.22;5029067;28;20037;-56
2023/12/05 00:48:27;;;;;;;1.50;1.40;;;;;;;8.08;64.49;99762.91;5030911;28;20087;-56
2023/12/05 00:50:53;;;;;;;1.52;1.42;;;;;;;8.08;64.56;99762.91;5029365;28;20042;-56
2023/12/05 00:53:18;;;;;;;2.92;1.48;;;;;;;8.08;64.38;99768.22;5029757;28;20040;-56
2023/12/05 00:55:44;;;;;;;1.90;1.80;;;;;;;8.08;64.26;99766.41;5028577;28;20025;-56
2023/12/05 00:58:09;;;;;;;1.77;1.63;;;;;;;8.08;64.26;99761.09;5029103;28;20059;-56
2023/12/05 01:00:34;;;;;;;1.63;1.48;;;;;;;8.08;64.26;99762.91;5023564;28;20037;-56
2023/12/05 01:03:00;;;;;;;1.88;1.70;;;;;;;8.08;64.34;99757.63;5033166;28;20447;-56
2023/12/05 01:05:25;;;;;;;1.70;1.60;;;;;;;8.08;64.31;99765.56;5031693;28;20029;-56
2023/12/05 01:07:51;;;;;;;1.67;1.58;;;;;;;8.08;64.34;99755.81;5028154;28;20138;-56
2023/12/05 01:10:16;;;;;;;1.60;1.50;;;;;;;8.07;64.38;99764.69;5028607;28;20141;-56
2023/12/05 01:12:41;;;;;;;1.63;1.30;;;;;;;8.08;64.33;99754.97;5025879;28;20419;-55
2023/12/05 01:15:07;;;;;;;1.40;1.30;;;;;;;8.08;64.36;99755.81;5044108;28;20033;-55
2023/12/05 01:17:32;;;;;;;2.00;1.73;;;;;;;8.08;64.31;99757.63;5031858;28;20052;-56
2023/12/05 01:19:58;;;;;;;1.67;1.58;;;;;;;8.08;64.41;99754.97;5028551;28;20472;-56
2023/12/05 01:22:23;;;;;;;1.60;1.50;;;;;;;8.08;64.38;99755.81;5031463;28;20424;-56
2023/12/05 01:24:55;;;;;;;2.58;2.05;;;;;;;8.08;64.29;99747.84;5027812;28;20045;-56
2023/12/05 01:27:21;;;;;;;2.13;1.92;;;;;;;8.09;64.38;99743.38;5030870;28;20033;-55
2023/12/05 01:29:47;;;;;;;1.40;1.30;;;;;;;8.09;64.30;99746.91;5027903;28;20026;-56
2023/12/05 01:32:13;;;;;;;1.55;1.40;;;;;;;8.09;64.36;99748.69;5028336;28;20034;-55
2023/12/05 01:34:39;;;;;;;1.58;1.48;;;;;;;8.09;64.22;99749.56;5028164;28;20032;-56
2023/12/05 01:37:04;;;;;;;1.80;1.70;;;;;;;8.08;64.24;99747.84;5028085;28;20037;-55
2023/12/05 01:39:29;;;;;;;1.60;1.50;;;;;;;8.09;64.15;99749.56;5024240;28;20033;-55
2023/12/05 01:41:55;;;;;;;1.60;1.50;;;;;;;8.08;64.31;99749.66;5031398;28;20029;-55
2023/12/05 01:44:20;;;;;;;1.63;1.52;;;;;;;8.08;64.30;99750.50;5022175;28;20060;-56
2023/12/05 01:46:46;;;;;;;2.00;1.65;;;;;;;8.09;64.32;99752.22;5027687;28;20387;-56
2023/12/05 01:49:11;;;;;;;1.60;1.50;;;;;;;8.08;64.30;99755.81;5028298;28;20488;-56
2023/12/05 01:51:37;;;;;;;1.60;1.27;;;;;;;8.09;64.37;99748.69;5028171;28;20044;-56
2023/12/05 01:54:03;;;;;;;1.58;1.48;;;;;;;8.09;64.27;99757.50;5028779;28;20563;-56
2023/12/05 01:56:30;;;;;;;1.63;1.52;;;;;;;8.08;64.28;99755.81;5027115;28;20080;-56
2023/12/05 01:58:56;;;;;;;1.60;1.50;;;;;;;8.08;64.31;99755.81;5027782;28;20040;-56
2023/12/05 02:01:22;;;;;;;1.63;1.52;;;;;;;8.08;64.38;99758.47;5029575;28;20049;-56
2023/12/05 02:03:49;;;;;;;1.80;1.30;;;;;;;8.09;64.28;99767.25;5026842;28;20120;-56
2023/12/05 02:06:18;;;;;;;1.60;1.38;;;;;;;8.09;64.29;99760.16;5027358;28;20136;-56
2023/12/05 02:08:49;;;;;;;1.90;1.77;;;;;;;8.09;64.33;99773.41;5028842;28;20383;-56
2023/12/05 02:11:15;;;;;;;1.42;1.33;;;;;;;8.10;64.27;99763.66;5030672;28;20116;-56
2023/12/05 02:13:43;;;;;;;1.60;1.50;;;;;;;8.09;64.27;99761.94;5029702;28;20463;-56
2023/12/05 02:16:34;;;;;;;1.40;1.30;;;;;;;8.11;64.26;99760.91;5028258;28;20029;-56
2023/12/05 02:19:24;;;;;;;1.67;1.58;;;;;;;8.11;64.23;99760.03;5027561;28;20037;-56
2023/12/05 02:21:53;;;;;;;1.60;1.50;;;;;;;8.10;64.18;99764.50;5028206;28;20069;-56
2023/12/05 02:24:40;;;;;;;1.55;1.45;;;;;;;8.10;64.34;99761.84;5026844;28;20464;-56
2023/12/05 02:27:41;;;;;;;1.50;1.40;;;;;;;8.09;64.26;99752.22;5026276;28;20025;-56
2023/12/05 02:30:09;;;;;;;1.70;1.60;;;;;;;8.10;64.28;99753.06;4988247;28;20038;-55
2023/12/05 02:32:34;;;;;;;1.60;1.50;;;;;;;8.10;64.20;99764.50;5019778;28;20045;-56
2023/12/05 02:34:59;;;;;;;1.73;1.50;;;;;;;8.10;64.24;99763.66;5027729;28;20402;-56
2023/12/05 02:37:55;;;;;;;2.08;1.83;;;;;;;8.10;64.23;99761.84;5026675;28;20471;-55
2023/12/05 02:40:36;;;;;;;1.58;1.45;;;;;;;8.09;64.19;99757.50;5025815;28;20034;-56
2023/12/05 02:43:06;;;;;;;1.25;1.20;;;;;;;8.09;64.25;99749.56;5029404;28;20092;-56
2023/12/05 02:45:33;;;;;;;2.00;1.83;;;;;;;8.09;64.34;99752.22;5027294;28;20040;-56
2023/12/05 02:48:01;;;;;;;1.33;1.23;;;;;;;8.08;64.24;99742.56;5038696;28;20460;-56
2023/12/05 02:50:27;;;;;;;1.50;1.40;;;;;;;8.09;64.26;99752.22;5033628;28;20079;-56
2023/12/05 02:52:52;;;;;;;1.52;1.42;;;;;;;8.09;64.29;99746.91;5031659;28;20033;-55
2023/12/05 02:55:17;;;;;;;1.77;1.67;;;;;;;8.09;64.19;99752.22;5033375;28;20026;-56
2023/12/05 02:57:43;;;;;;;1.50;1.40;;;;;;;8.09;64.23;99752.22;5031103;28;20061;-55
2023/12/05 03:00:09;;;;;;;1.70;1.50;;;;;;;8.08;64.26;99747.84;5027291;28;20053;-56
2023/12/05 03:02:35;;;;;;;1.35;1.25;;;;;;;8.09;64.04;99746.03;5028655;28;20115;-56
2023/12/05 03:05:00;;;;;;;1.10;1.10;;;;;;;8.09;64.27;99748.69;5033882;28;20387;-56
2023/12/05 03:07:26;;;;;;;1.70;1.60;;;;;;;8.09;64.16;99740.75;5029726;28;20049;-56
2023/12/05 03:09:51;;;;;;;1.73;1.63;;;;;;;8.09;64.19;99738.09;5031131;28;20583;-56
2023/12/05 03:12:16;;;;;;;1.67;1.58;;;;;;;8.09;64.15;99736.31;5030554;28;20116;-56
2023/12/05 03:14:42;;;;;;;1.50;1.40;;;;;;;8.09;64.14;99735.44;5032574;28;20120;-56
2023/12/05 03:17:07;;;;;;;1.50;1.40;;;;;;;8.09;64.12;99738.97;5031567;28;20029;-56
2023/12/05 03:19:32;;;;;;;1.83;1.63;;;;;;;8.09;64.21;99736.31;5030273;28;20617;-56
2023/12/05 03:21:58;;;;;;;1.48;1.30;;;;;;;8.09;64.15;99736.31;5030696;28;20060;-56
2023/12/05 03:24:23;;;;;;;1.63;1.52;;;;;;;8.09;64.20;99731.00;5027746;28;20036;-56
2023/12/05 03:26:48;;;;;;;1.58;1.48;;;;;;;8.09;64.19;99741.59;5033798;28;20038;-56
2023/12/05 03:29:14;;;;;;;1.52;1.42;;;;;;;8.09;64.23;99731.00;5030693;28;20121;-56
2023/12/05 03:31:40;;;;;;;1.60;1.40;;;;;;;8.10;64.21;99735.34;5028301;28;20506;-56
2023/12/05 03:34:06;;;;;;;1.48;1.38;;;;;;;8.09;64.18;99732.78;5033598;28;20038;-56
2023/12/05 03:36:32;;;;;;;1.50;1.40;;;;;;;8.09;64.08;99740.75;5030955;28;20040;-56
2023/12/05 03:38:57;;;;;;;1.63;1.52;;;;;;;8.09;64.36;99741.59;5029770;28;20037;-56
2023/12/05 03:41:23;;;;;;;1.42;1.30;;;;;;;8.09;64.22;99736.31;5030322;28;20033;-56
2023/12/05 03:43:48;;;;;;;1.27;1.20;;;;;;;8.10;64.16;99737.16;5030581;28;20391;-56
2023/12/05 03:46:13;;;;;;;1.65;1.55;;;;;;;8.09;64.04;99752.22;5030851;28;20044;-56
2023/12/05 03:48:39;;;;;;;1.60;1.50;;;;;;;8.09;64.15;99741.59;5033629;28;20029;-55
2023/12/05 03:51:05;;;;;;;1.50;1.40;;;;;;;8.11;64.16;99749.44;5031400;28;20040;-56
2023/12/05 03:53:30;;;;;;;1.70;1.60;;;;;;;8.11;64.11;99745.00;5029746;28;20040;-56
2023/12/05 03:55:55;;;;;;;1.60;1.50;;;;;;;8.10;64.31;99753.88;5030543;28;20542;-56
2023/12/05 03:58:21;;;;;;;1.70;1.60;;;;;;;8.10;64.20;99753.06;5027916;28;20085;-56
2023/12/05 04:00:46;;;;;;;1.63;1.52;;;;;;;8.11;64.14;99750.28;5032432;28;20025;-56
2023/12/05 04:03:11;;;;;;;1.52;1.42;;;;;;;8.11;64.06;99754.72;5033273;28;20055;-56
2023/12/05 04:05:38;;;;;;;1.35;1.25;;;;;;;8.10;64.12;99764.50;5029102;28;20029;-56
2023/12/05 04:08:05;;;;;;;1.48;1.38;;;;;;;8.10;64.20;99759.19;5029556;28;20050;-56
2023/12/05 04:10:30;;;;;;;1.48;1.38;;;;;;;8.10;64.11;99761.00;5031978;28;20108;-56
2023/12/05 04:12:55;;;;;;;1.30;1.20;;;;;;;8.10;64.10;99767.16;5035201;28;20116;-56
2023/12/05 04:15:21;;;;;;;1.40;1.30;;;;;;;8.11;63.97;99771.50;5029706;28;20037;-56
2023/12/05 04:17:47;;;;;;;1.67;1.33;;;;;;;8.10;64.06;99772.44;5028713;28;20455;-56
2023/12/05 04:20:12;;;;;;;1.65;1.48;;;;;;;8.10;64.12;99777.75;5028265;28;20033;-56
2023/12/05 04:22:37;;;;;;;2.10;1.83;;;;;;;8.11;64.06;99773.28;5032821;28;20059;-56
2023/12/05 04:25:06;;;;;;;1.70;1.60;;;;;;;8.10;63.99;99776.91;5028879;28;20037;-56
2023/12/05 04:27:32;;;;;;;1.73;1.42;;;;;;;8.10;64.13;99776.91;5029509;28;20037;-56
2023/12/05 04:29:57;;;;;;;1.52;1.42;;;;;;;8.09;64.16;99769.91;5029884;28;20039;-56
2023/12/05 04:32:23;;;;;;;1.88;1.70;;;;;;;8.09;64.19;99770.78;5028777;28;20378;-56
2023/12/05 04:34:48;;;;;;;1.58;1.48;;;;;;;8.09;64.07;99773.41;5029316;28;20033;-56
2023/12/05 04:37:13;;;;;;;1.33;1.23;;;;;;;8.10;64.12;99777.75;5030418;28;20470;-56
2023/12/05 04:39:39;;;;;;;1.70;1.60;;;;;;;8.10;64.08;99780.41;5029132;28;20078;-56
2023/12/05 04:42:05;;;;;;;1.65;1.55;;;;;;;8.10;64.04;99784.88;5029360;28;20406;-56
2023/12/05 04:44:30;;;;;;;1.60;1.50;;;;;;;8.11;64.00;99781.25;5025602;28;20171;-56
2023/12/05 04:47:00;;;;;;;1.65;1.55;;;;;;;8.10;64.05;99782.22;5033742;28;20545;-56
2023/12/05 04:49:25;;;;;;;1.55;1.45;;;;;;;8.12;64.13;99788.25;5028658;28;20443;-56
2023/12/05 04:51:51;;;;;;;1.50;1.40;;;;;;;8.11;64.10;99786.53;5024687;28;20172;-56
2023/12/05 04:54:16;;;;;;;1.52;1.42;;;;;;;8.11;64.02;99797.16;5028863;28;20037;-56
2023/12/05 04:56:42;;;;;;;1.85;1.55;;;;;;;8.11;64.05;99794.50;5031656;28;20060;-56
2023/12/05 04:59:07;;;;;;;1.60;1.50;;;;;;;8.11;64.16;99798.03;5031605;28;20040;-56
2023/12/05 05:01:33;;;;;;;1.63;1.52;;;;;;;8.11;64.06;99802.44;5027522;28;20112;-56
2023/12/05 05:03:58;;;;;;;1.70;1.60;;;;;;;8.10;64.05;99803.41;5025288;28;20127;-56
2023/12/05 05:06:23;;;;;;;2.05;1.65;;;;;;;8.10;64.11;99801.59;5026708;28;20479;-56
2023/12/05 05:08:49;;;;;;;1.58;1.48;;;;;;;8.10;64.08;99801.59;5031295;28;20045;-56
2023/12/05 05:11:14;;;;;;;1.65;1.55;;;;;;;8.11;64.08;99803.31;5028400;28;20040;-56
2023/12/05 05:13:39;;;;;;;1.52;1.42;;;;;;;8.10;64.10;99809.56;5028257;28;20040;-56
2023/12/05 05:16:10;;;;;;;1.73;1.58;;;;;;;8.10;63.98;99812.22;5028589;28;20120;-56
2023/12/05 05:18:37;;;;;;;1.98;1.77;;;;;;;8.11;63.95;99813.94;5030683;28;20123;-56
2023/12/05 05:21:06;;;;;;;1.85;1.65;;;;;;;8.11;64.00;99819.22;5028273;28;20509;-56
2023/12/05 05:23:32;;;;;;;1.50;1.40;;;;;;;8.10;64.06;99814.88;5028971;28;20450;-56
2023/12/05 05:25:57;;;;;;;1.75;1.65;;;;;;;8.09;64.06;99818.50;5027707;28;20033;-56
2023/12/05 05:28:23;;;;;;;1.90;1.67;;;;;;;8.10;64.28;99821.97;5028502;28;20033;-56
2023/12/05 05:30:48;;;;;;;1.58;1.48;;;;;;;8.11;64.02;99821.88;5028650;28;20042;-56
2023/12/05 05:33:14;;;;;;;1.75;1.65;;;;;;;8.11;64.17;99821.88;5028229;28;20033;-56
2023/12/05 05:35:39;;;;;;;2.10;1.88;;;;;;;8.11;63.98;99821.88;5028247;28;20545;-56
2023/12/05 05:38:05;;;;;;;2.58;1.88;;;;;;;8.11;64.00;99821.88;5027542;28;20041;-56
2023/12/05 05:40:30;;;;;;;2.22;1.70;;;;;;;8.12;64.04;99822.72;5030286;28;20442;-56
2023/12/05 05:42:55;;;;;;;2.33;2.13;;;;;;;8.10;64.11;99816.69;5029371;28;20109;-56
2023/12/05 05:45:21;;;;;;;2.50;2.03;;;;;;;8.11;64.00;99818.34;5027417;28;20037;-56
2023/12/05 05:47:46;;;;;;;1.90;1.80;;;;;;;8.11;64.02;99821.00;5031594;28;20379;-56
2023/12/05 05:50:12;;;;;;;2.00;1.80;;;;;;;8.11;64.03;99821.88;5028175;28;20030;-56
2023/12/05 05:52:37;;;;;;;1.77;1.63;;;;;;;8.10;64.00;99821.97;5027453;28;20391;-56
2023/12/05 05:55:03;;;;;;;2.05;1.85;;;;;;;8.09;63.87;99826.44;5032618;28;20056;-56
2023/12/05 05:57:29;;;;;;;1.95;1.80;;;;;;;8.11;63.91;99828.97;5028499;28;20072;-56
2023/12/05 05:59:54;;;;;;;2.28;2.08;;;;;;;8.10;64.10;99820.16;5025746;28;20131;-56
2023/12/05 06:02:20;;;;;;;1.83;1.73;;;;;;;8.10;64.00;99825.47;5030345;28;20045;-56
2023/12/05 06:04:45;;;;;;;2.05;1.88;;;;;;;8.10;64.00;99821.97;5031025;28;20030;-56
2023/12/05 06:07:10;;;;;;;1.70;1.60;;;;;;;8.10;64.03;99828.13;5026982;28;20106;-56
2023/12/05 06:09:36;;;;;;;1.88;1.70;;;;;;;8.09;63.87;99829.09;5027689;28;20044;-56
2023/12/05 06:12:02;;;;;;;2.05;1.83;;;;;;;8.11;63.88;99828.97;5026708;28;20048;-56
2023/12/05 06:14:28;;;;;;;1.80;1.70;;;;;;;8.11;63.95;99834.25;5028144;28;20044;-56
2023/12/05 06:16:53;;;;;;;1.77;1.67;;;;;;;8.10;63.94;99828.13;5027666;28;20037;-56
2023/12/05 06:19:19;;;;;;;1.63;1.52;;;;;;;8.11;64.01;99835.13;5027375;28;20099;-56
2023/12/05 06:21:44;;;;;;;2.22;1.67;;;;;;;8.11;63.96;99839.56;5026556;28;20041;-56
2023/12/05 06:24:10;;;;;;;1.80;1.48;;;;;;;8.10;64.00;99844.03;5043007;28;20333;-56
2023/12/05 06:26:36;;;;;;;2.20;1.98;;;;;;;8.11;64.04;99845.75;5027043;28;20087;-56
2023/12/05 06:29:05;;;;;;;1.90;1.70;;;;;;;8.11;64.01;99845.75;5027398;28;20383;-56
2023/12/05 06:31:30;;;;;;;2.05;1.90;;;;;;;8.10;63.95;99849.34;5026060;28;20025;-56
2023/12/05 06:33:55;;;;;;;1.58;1.48;;;;;;;8.10;63.98;99851.97;5030593;28;20037;-56
2023/12/05 06:36:21;;;;;;;1.75;1.65;;;;;;;8.11;64.17;99861.66;5027773;28;20435;-55
2023/12/05 06:38:46;;;;;;;1.70;1.60;;;;;;;8.10;63.98;99862.59;5026461;28;20063;-56
2023/12/05 06:41:11;;;;;;;2.30;2.10;;;;;;;8.10;64.09;99865.25;5030770;28;20224;-56
2023/12/05 06:43:37;;;;;;;2.65;2.03;;;;;;;8.11;63.96;99868.72;5028868;28;20026;-56
2023/12/05 06:46:02;;;;;;;1.98;1.77;;;;;;;8.10;64.13;99864.41;5028495;28;20033;-56
2023/12/05 06:48:28;;;;;;;1.83;1.73;;;;;;;8.10;63.92;99867.06;5028054;28;20040;-56
2023/12/05 06:50:53;;;;;;;3.80;1.80;;;;;;;8.12;63.86;99868.63;5028546;28;20121;-57
2023/12/05 06:53:18;;;;;;;1.90;1.70;;;;;;;8.10;64.00;99870.53;5028081;28;20074;-56
2023/12/05 06:55:46;;;;;;;1.70;1.60;;;;;;;8.11;63.98;99876.69;5044577;28;20021;-56
2023/12/05 06:58:12;;;;;;;2.40;2.08;;;;;;;8.11;63.89;99877.56;5026681;28;20207;-56
2023/12/05 07:00:37;;;;;;;2.35;2.15;;;;;;;8.11;64.04;99877.56;5026203;28;20124;-56
2023/12/05 07:03:04;;;;;;;2.47;2.22;;;;;;;8.11;63.94;99882.84;5028506;28;20124;-56
2023/12/05 07:05:29;;;;;;;2.30;2.10;;;;;;;8.11;64.00;99876.69;5028465;28;20033;-56
2023/12/05 07:07:56;;;;;;;2.05;1.85;;;;;;;8.11;63.91;99885.50;5027561;28;20060;-56
2023/12/05 07:10:22;;;;;;;2.10;1.90;;;;;;;8.11;63.91;99892.59;5027632;28;20483;-56
2023/12/05 07:12:47;;;;;;;2.20;2.00;;;;;;;8.10;63.93;99897.06;5029299;28;20029;-55
2023/12/05 07:15:13;;;;;;;2.20;1.88;;;;;;;8.10;63.91;99907.66;5026514;28;20162;-56
2023/12/05 07:17:38;;;;;;;2.00;1.90;;;;;;;8.10;63.82;99905.00;5027477;28;20471;-57
2023/12/05 07:20:04;;;;;;;2.45;2.25;;;;;;;8.11;63.80;99905.84;5027571;28;20033;-55
2023/12/05 07:22:29;;;;;;;2.58;2.35;;;;;;;8.12;63.90;99910.22;5028222;28;20037;-55
2023/12/05 07:24:55;;;;;;;3.15;2.55;;;;;;;8.10;63.97;99910.31;5028323;28;20128;-56
2023/12/05 07:27:20;;;;;;;2.10;1.92;;;;;;;8.10;63.84;99918.25;5026866;28;20087;-56
2023/12/05 07:29:46;;;;;;;2.53;2.20;;;;;;;8.10;64.00;99918.25;5026504;28;20028;-55
2023/12/05 07:32:11;;;;;;;2.00;1.80;;;;;;;8.11;64.03;99919.97;5027875;28;20033;-55
2023/12/05 07:34:36;;;;;;;2.53;2.22;;;;;;;8.10;63.86;99923.56;5030878;28;20363;-55
2023/12/05 07:37:03;;;;;;;2.60;1.98;;;;;;;8.11;63.93;99927.06;5032012;28;20187;-56
2023/12/05 07:39:28;;;;;;;2.33;2.10;;;;;;;8.11;63.97;99940.31;5030855;28;20037;-55
2023/12/05 07:41:53;;;;;;;2.45;2.25;;;;;;;8.11;64.04;99935.88;5032467;28;20487;-55
2023/12/05 07:44:19;;;;;;;2.17;1.98;;;;;;;8.10;63.88;99933.31;5032053;28;20042;-56
2023/12/05 07:46:45;;;;;;;3.00;2.70;;;;;;;8.11;63.95;99941.19;5034621;28;20069;-55
2023/12/05 07:49:10;;;;;;;2.88;2.40;;;;;;;8.11;64.12;99942.97;5032025;28;20045;-55
2023/12/05 07:51:36;;;;;;;2.50;2.13;;;;;;;8.11;63.90;99948.25;5029865;28;20026;-55
2023/12/05 07:54:01;;;;;;;2.35;2.15;;;;;;;8.11;63.94;99951.78;5029458;28;20542;-56
2023/12/05 07:56:27;;;;;;;2.40;2.20;;;;;;;8.11;64.05;99961.53;5029876;28;20033;-55
2023/12/05 07:58:52;;;;;;;3.08;2.25;;;;;;;8.12;63.94;99965.88;5030726;28;20116;-56
2023/12/05 08:01:17;;;;;;;2.50;2.30;;;;;;;8.11;63.87;99965.03;5027081;28;20030;-56
2023/12/05 08:03:43;;;;;;;3.10;2.58;;;;;;;8.11;63.42;99975.66;5030253;28;20026;-56
2023/12/05 08:06:09;;;;;;;3.78;3.03;;;;;;;8.11;63.90;99978.31;5026469;28;20056;-56
2023/12/05 08:08:34;;;;;;;3.17;2.63;;;;;;;8.11;63.90;99983.59;5029710;28;20061;-58
2023/12/05 08:11:01;;;;;;;3.05;2.67;;;;;;;8.10;63.90;99987.19;5030725;28;20037;-56
2023/12/05 08:13:26;;;;;;;3.47;2.58;;;;;;;8.11;64.00;99988.91;5028716;28;20026;-55
2023/12/05 08:15:54;;;;;;;2.95;2.50;;;;;;;8.11;63.98;99988.03;5031488;28;20455;-56
2023/12/05 08:18:19;;;;;;;3.58;2.58;;;;;;;8.12;63.94;99989.75;5030479;28;20045;-56
2023/12/05 08:20:44;;;;;;;3.03;2.72;;;;;;;8.12;63.99;99998.53;5032391;28;20041;-56
2023/12/05 08:23:10;;;;;;;2.72;2.42;;;;;;;8.11;63.83;99998.63;5029245;28;20029;-56
2023/12/05 08:25:35;;;;;;;3.55;2.17;;;;;;;8.10;63.89;99997.78;5030485;28;20088;-55
2023/12/05 08:28:01;;;;;;;2.92;2.55;;;;;;;8.12;63.96;100008.31;5029575;28;20124;-56
2023/12/05 08:30:26;;;;;;;2.92;2.63;;;;;;;8.11;63.89;100011.91;5031553;28;20029;-56
2023/12/05 08:32:51;;;;;;;3.30;2.38;;;;;;;8.11;64.02;100003.94;5035641;28;20116;-55
2023/12/05 08:35:17;;;;;;;2.67;2.47;;;;;;;8.10;64.02;100021.66;5028617;28;20116;-56
2023/12/05 08:37:42;;;;;;;3.15;2.78;;;;;;;8.11;63.97;100015.41;5028595;28;20038;-56
2023/12/05 08:40:08;;;;;;;4.80;3.15;;;;;;;8.11;64.06;100026.03;5027739;28;20080;-56
2023/12/05 08:42:34;;;;;;;3.20;2.90;;;;;;;8.11;64.11;100023.38;5031592;28;20038;-56
2023/12/05 08:45:00;;;;;;;3.17;2.38;;;;;;;8.10;64.02;100037.56;5028031;28;20423;-55
2023/12/05 08:47:26;;;;;;;2.58;2.38;;;;;;;8.11;63.98;100035.75;5028291;28;20057;-56
2023/12/05 08:49:51;;;;;;;3.15;2.75;;;;;;;8.11;63.95;100031.31;5028454;28;20514;-56
2023/12/05 08:52:18;;;;;;;4.05;3.33;;;;;;;8.11;63.95;100031.31;5031058;28;20439;-56
2023/12/05 08:54:44;;;;;;;3.08;2.65;;;;;;;8.11;63.80;100033.09;5029575;28;20419;-56
2023/12/05 08:57:10;;;;;;;3.45;2.95;;;;;;;8.11;63.81;100033.97;5030425;28;20037;-56
2023/12/05 08:59:35;;;;;;;3.47;3.00;;;;;;;8.11;63.86;100033.97;5031568;28;20026;-56
2023/12/05 09:02:00;;;;;;;3.08;2.78;;;;;;;8.11;64.02;100041.94;5027912;28;20087;-55
2023/12/05 09:04:26;;;;;;;3.55;2.95;;;;;;;8.11;63.82;100041.94;5030326;28;20026;-56
2023/12/05 09:06:51;;;;;;;3.03;2.72;;;;;;;8.11;64.08;100041.06;5028893;28;20045;-56
2023/12/05 09:09:16;;;;;;;2.90;2.60;;;;;;;8.11;63.87;100047.25;5029893;28;20603;-56
2023/12/05 09:11:44;;;;;;;3.80;2.72;;;;;;;8.11;63.90;100047.25;5030043;28;20384;-56
2023/12/05 09:14:09;;;;;;;3.15;2.63;;;;;;;8.11;63.86;100057.84;5026885;28;20034;-56
2023/12/05 09:16:35;;;;;;;2.97;2.60;;;;;;;8.12;64.00;100054.22;5032392;28;20037;-56
2023/12/05 09:19:01;;;;;;;4.18;2.92;;;;;;;8.12;63.91;100059.53;5030308;28;20029;-56
2023/12/05 09:21:26;;;;;;;3.75;2.85;;;;;;;8.12;63.83;100058.69;5029700;28;20419;-55
2023/12/05 09:23:52;;;;;;;2.92;2.63;;;;;;;8.11;63.83;100062.28;5029489;28;20033;-56
2023/12/05 09:26:18;;;;;;;3.30;2.78;;;;;;;8.11;63.94;100059.63;5028869;28;20040;-56
2023/12/05 09:28:43;;;;;;;2.97;2.63;;;;;;;8.12;64.02;100063.97;5033125;28;20038;-56
2023/12/05 09:31:10;;;;;;;3.60;3.17;;;;;;;8.11;63.97;100073.75;5029381;28;20129;-56
2023/12/05 09:33:35;;;;;;;3.25;2.70;;;;;;;8.11;63.90;100073.75;5028624;28;20108;-56
2023/12/05 09:36:01;;;;;;;3.63;2.70;;;;;;;8.12;63.80;100085.19;5029193;28;20036;-55
2023/12/05 09:38:26;;;;;;;3.17;2.80;;;;;;;8.12;64.00;100079.91;5028839;28;20067;-56
2023/12/05 09:40:52;;;;;;;2.95;2.67;;;;;;;8.13;63.78;100092.19;5028820;28;20030;-56
2023/12/05 09:43:21;;;;;;;4.00;3.10;;;;;;;8.12;63.89;100087.84;5029475;28;20748;-56
2023/12/05 09:45:47;;;;;;;3.55;2.88;;;;;;;8.12;63.87;100088.69;5024105;28;20100;-56
2023/12/05 09:48:18;;;;;;;3.40;3.10;;;;;;;8.12;63.91;100096.66;5026717;28;20056;-56
2023/12/05 09:50:44;;;;;;;3.85;2.83;;;;;;;8.13;63.84;100097.50;5029980;28;20021;-56
2023/12/05 09:53:10;;;;;;;2.97;2.70;;;;;;;8.13;63.93;100102.78;5030633;28;20087;-56
2023/12/05 09:55:38;;;;;;;3.58;2.75;;;;;;;8.12;63.87;100101.94;5028127;28;20377;-56
2023/12/05 09:58:04;;;;;;;3.65;2.88;;;;;;;8.13;63.99;100106.31;5028585;28;20065;-56
2023/12/05 10:00:29;;;;;;;3.58;3.03;;;;;;;8.12;64.03;100096.66;5031588;28;20383;-56
2023/12/05 10:02:56;;;;;;;3.08;2.78;;;;;;;8.13;63.90;100100.13;5026676;28;20021;-56
2023/12/05 10:05:24;;;;;;;4.20;2.72;;;;;;;8.13;64.09;100113.41;5028792;28;20034;-56
2023/12/05 10:07:49;;;;;;;3.58;3.08;;;;;;;8.12;63.77;100109.91;5028717;28;20084;-56
2023/12/05 10:10:19;;;;;;;3.90;2.92;;;;;;;8.12;64.01;100115.19;5028454;28;20049;-56
2023/12/05 10:12:47;;;;;;;3.95;3.00;;;;;;;8.12;63.82;100122.31;5029505;28;20414;-56
2023/12/05 10:15:12;;;;;;;5.45;3.35;;;;;;;8.13;63.83;100124.00;5025044;28;20108;-56
2023/12/05 10:17:37;;;;;;;3.03;2.60;;;;;;;8.13;63.78;100130.19;5029529;28;20039;-56
2023/12/05 10:20:04;;;;;;;2.65;2.45;;;;;;;8.13;63.57;100129.31;5026429;28;20030;-56
2023/12/05 10:22:33;;;;;;;3.78;2.95;;;;;;;8.13;63.80;100135.47;5027042;28;20041;-56
2023/12/05 10:24:58;;;;;;;2.88;2.65;;;;;;;8.13;63.88;100131.97;5027535;28;20033;-56
2023/12/05 10:27:24;;;;;;;3.47;2.92;;;;;;;8.13;63.91;100135.47;5026362;28;20033;-56
2023/12/05 10:29:49;;;;;;;3.17;2.83;;;;;;;8.14;63.80;100146.94;5023812;28;20503;-56
2023/12/05 10:32:15;;;;;;;3.95;3.05;;;;;;;8.13;63.79;100145.22;5028326;28;20099;-56
2023/12/05 10:34:51;;;;;;;4.32;3.20;;;;;;;8.13;64.04;100146.09;5029633;28;20029;-56
2023/12/05 10:37:20;;;;;;;3.38;3.08;;;;;;;8.14;63.84;100152.22;5030395;28;20034;-56
2023/12/05 10:39:48;;;;;;;4.60;3.28;;;;;;;8.13;63.83;100148.75;5029293;28;20570;-56
2023/12/05 10:42:13;;;;;;;4.18;3.03;;;;;;;8.14;64.16;100152.22;5028141;28;20103;-56
2023/12/05 10:44:39;;;;;;;5.18;3.38;;;;;;;8.13;63.87;100155.81;5027060;28;20030;-56
2023/12/05 10:47:14;;;;;;;4.10;3.22;;;;;;;8.14;64.00;100153.06;5027701;28;20033;-56
2023/12/05 10:49:42;;;;;;;3.97;3.20;;;;;;;8.14;63.92;100161.03;5028564;28;20040;-56
2023/12/05 10:52:08;;;;;;;4.63;3.50;;;;;;;8.14;63.98;100163.69;5028704;28;20432;-56
2023/12/05 10:54:33;;;;;;;3.47;3.17;;;;;;;8.15;63.91;100164.56;5024185;28;20052;-55
2023/12/05 10:56:59;;;;;;;3.97;3.22;;;;;;;8.13;63.83;100167.28;5028822;28;20029;-56
2023/12/05 10:59:31;;;;;;;4.65;3.55;;;;;;;8.14;63.92;100165.50;5028586;28;20037;-56
2023/12/05 11:01:56;;;;;;;3.38;2.80;;;;;;;8.14;63.96;100173.44;5027242;28;20035;-56
2023/12/05 11:04:25;;;;;;;4.10;3.38;;;;;;;8.14;63.99;100168.97;5027223;28;20034;-56
2023/12/05 11:06:52;;;;;;;4.45;3.38;;;;;;;8.15;63.96;100176.00;5027934;28;20049;-55
2023/12/05 11:09:18;;;;;;;3.97;3.28;;;;;;;8.14;63.83;100171.63;5031602;28;20037;-56
2023/12/05 11:11:46;;;;;;;3.70;3.05;;;;;;;8.14;63.87;100179.59;5032079;28;20488;-56
2023/12/05 11:14:14;;;;;;;3.30;3.00;;;;;;;8.14;63.92;100178.75;5027543;28;20478;-55
2023/12/05 11:16:45;;;;;;;4.30;3.38;;;;;;;8.14;63.84;100178.75;5034789;28;20083;-55
2023/12/05 11:19:42;;;;;;;4.20;3.22;;;;;;;8.17;63.98;100189.16;5032156;28;20036;-56
2023/12/05 11:22:23;;;;;;;3.55;3.10;;;;;;;8.15;63.94;100191.91;5036419;28;20495;-56
2023/12/05 11:24:48;;;;;;;3.43;3.13;;;;;;;8.16;63.90;100192.75;5031642;28;20061;-56
2023/12/05 11:27:34;;;;;;;3.90;3.20;;;;;;;8.14;63.88;100187.53;5032055;28;20505;-55
2023/12/05 11:30:15;;;;;;;4.25;3.35;;;;;;;8.15;63.89;100194.56;5032764;28;20029;-56
2023/12/05 11:33:01;;;;;;;3.92;2.83;;;;;;;8.13;63.88;100193.81;5034528;28;20104;-56
2023/12/05 11:35:51;;;;;;;5.35;3.22;;;;;;;8.16;63.93;100203.34;5044711;28;20033;-55
2023/12/05 11:38:19;;;;;;;4.50;3.55;;;;;;;8.14;63.88;100206.09;5034161;28;20103;-55